sensor_id;sensor_type;location;lat;lon;timestamp;P1;durP1;ratioP1;P2;durP2;ratioP2
65033;SDS011;51601;51.356;12.458;2024-01-25T00:03:47;7.77;;;1.67;;
65033;SDS011;51601;51.356;12.458;2024-01-25T00:08:05;7.75;;;2.03;;
65033;SDS011;51601;51.356;12.458;2024-01-25T00:12:23;11.23;;;1.95;;
65033;SDS011;51601;51.356;12.458;2024-01-25T00:16:43;7.13;;;1.98;;
65033;SDS011;51601;51.356;12.458;2024-01-25T00:20:59;7.93;;;1.80;;
65033;SDS011;51601;51.356;12.458;2024-01-25T00:25:17;11.43;;;1.88;;
65033;SDS011;51601;51.356;12.458;2024-01-25T00:29:35;7.07;;;1.83;;
65033;SDS011;51601;51.356;12.458;2024-01-25T00:33:55;8.90;;;2.03;;
65033;SDS011;51601;51.356;12.458;2024-01-25T00:38:15;6.63;;;1.75;;
65033;SDS011;51601;51.356;12.458;2024-01-25T00:42:33;6.38;;;1.63;;
65033;SDS011;51601;51.356;12.458;2024-01-25T00:46:57;4.77;;;1.33;;
65033;SDS011;51601;51.356;12.458;2024-01-25T00:51:18;4.63;;;1.70;;
65033;SDS011;51601;51.356;12.458;2024-01-25T00:55:39;9.82;;;1.90;;
65033;SDS011;51601;51.356;12.458;2024-01-25T00:59:58;8.68;;;1.67;;
65033;SDS011;51601;51.356;12.458;2024-01-25T01:04:15;8.70;;;2.07;;
65033;SDS011;51601;51.356;12.458;2024-01-25T01:08:35;13.60;;;2.22;;
65033;SDS011;51601;51.356;12.458;2024-01-25T01:12:54;6.50;;;2.03;;
65033;SDS011;51601;51.356;12.458;2024-01-25T01:17:12;10.23;;;2.40;;
65033;SDS011;51601;51.356;12.458;2024-01-25T01:21:31;8.23;;;1.80;;
65033;SDS011;51601;51.356;12.458;2024-01-25T01:25:50;8.77;;;2.22;;
65033;SDS011;51601;51.356;12.458;2024-01-25T01:30:07;5.87;;;1.87;;
65033;SDS011;51601;51.356;12.458;2024-01-25T01:34:25;9.50;;;1.90;;
65033;SDS011;51601;51.356;12.458;2024-01-25T01:38:43;9.27;;;2.50;;
65033;SDS011;51601;51.356;12.458;2024-01-25T01:43:02;6.53;;;1.77;;
65033;SDS011;51601;51.356;12.458;2024-01-25T01:47:22;11.83;;;1.90;;
65033;SDS011;51601;51.356;12.458;2024-01-25T01:51:40;8.98;;;2.15;;
65033;SDS011;51601;51.356;12.458;2024-01-25T01:56:01;8.02;;;1.80;;
65033;SDS011;51601;51.356;12.458;2024-01-25T02:00:21;11.13;;;1.87;;
65033;SDS011;51601;51.356;12.458;2024-01-25T02:04:40;8.68;;;1.45;;
65033;SDS011;51601;51.356;12.458;2024-01-25T02:08:59;11.85;;;2.38;;
65033;SDS011;51601;51.356;12.458;2024-01-25T02:13:17;8.13;;;2.00;;
65033;SDS011;51601;51.356;12.458;2024-01-25T02:17:36;7.88;;;2.15;;
65033;SDS011;51601;51.356;12.458;2024-01-25T02:21:56;9.05;;;2.20;;
65033;SDS011;51601;51.356;12.458;2024-01-25T02:26:18;7.30;;;1.45;;
65033;SDS011;51601;51.356;12.458;2024-01-25T02:30:38;7.97;;;1.63;;
65033;SDS011;51601;51.356;12.458;2024-01-25T02:34:57;11.07;;;2.50;;
65033;SDS011;51601;51.356;12.458;2024-01-25T02:39:14;4.35;;;1.23;;
65033;SDS011;51601;51.356;12.458;2024-01-25T02:43:33;11.93;;;2.43;;
65033;SDS011;51601;51.356;12.458;2024-01-25T02:47:50;9.52;;;2.08;;
65033;SDS011;51601;51.356;12.458;2024-01-25T02:52:08;12.95;;;2.38;;
65033;SDS011;51601;51.356;12.458;2024-01-25T02:56:26;9.30;;;1.80;;
65033;SDS011;51601;51.356;12.458;2024-01-25T03:00:52;7.20;;;1.83;;
65033;SDS011;51601;51.356;12.458;2024-01-25T03:05:12;9.63;;;1.88;;
65033;SDS011;51601;51.356;12.458;2024-01-25T03:09:30;10.80;;;1.90;;
65033;SDS011;51601;51.356;12.458;2024-01-25T03:13:48;9.33;;;2.03;;
65033;SDS011;51601;51.356;12.458;2024-01-25T03:18:07;6.82;;;1.50;;
65033;SDS011;51601;51.356;12.458;2024-01-25T03:22:27;12.68;;;2.67;;
65033;SDS011;51601;51.356;12.458;2024-01-25T03:26:45;13.27;;;2.50;;
65033;SDS011;51601;51.356;12.458;2024-01-25T03:31:06;7.90;;;1.55;;
65033;SDS011;51601;51.356;12.458;2024-01-25T03:35:26;10.90;;;1.92;;
65033;SDS011;51601;51.356;12.458;2024-01-25T03:39:48;9.23;;;1.87;;
65033;SDS011;51601;51.356;12.458;2024-01-25T03:44:06;10.60;;;2.25;;
65033;SDS011;51601;51.356;12.458;2024-01-25T03:48:24;9.60;;;1.75;;
65033;SDS011;51601;51.356;12.458;2024-01-25T03:52:44;14.55;;;2.45;;
65033;SDS011;51601;51.356;12.458;2024-01-25T03:57:01;14.77;;;3.13;;
65033;SDS011;51601;51.356;12.458;2024-01-25T04:01:19;10.40;;;2.10;;
65033;SDS011;51601;51.356;12.458;2024-01-25T04:05:37;10.00;;;2.13;;
65033;SDS011;51601;51.356;12.458;2024-01-25T04:09:59;12.87;;;2.47;;
65033;SDS011;51601;51.356;12.458;2024-01-25T04:14:19;8.48;;;1.75;;
65033;SDS011;51601;51.356;12.458;2024-01-25T04:18:37;10.68;;;2.00;;
65033;SDS011;51601;51.356;12.458;2024-01-25T04:22:55;9.53;;;2.20;;
65033;SDS011;51601;51.356;12.458;2024-01-25T04:27:15;6.57;;;1.50;;
65033;SDS011;51601;51.356;12.458;2024-01-25T04:31:34;11.98;;;2.60;;
65033;SDS011;51601;51.356;12.458;2024-01-25T04:35:52;8.48;;;1.52;;
65033;SDS011;51601;51.356;12.458;2024-01-25T04:40:10;8.40;;;2.27;;
65033;SDS011;51601;51.356;12.458;2024-01-25T04:44:30;12.27;;;2.00;;
65033;SDS011;51601;51.356;12.458;2024-01-25T04:48:47;7.93;;;1.70;;
65033;SDS011;51601;51.356;12.458;2024-01-25T04:53:04;11.30;;;2.00;;
65033;SDS011;51601;51.356;12.458;2024-01-25T04:57:23;8.50;;;2.08;;
65033;SDS011;51601;51.356;12.458;2024-01-25T05:01:42;12.35;;;1.92;;
65033;SDS011;51601;51.356;12.458;2024-01-25T05:06:02;9.47;;;1.90;;
65033;SDS011;51601;51.356;12.458;2024-01-25T05:10:20;10.30;;;2.30;;
65033;SDS011;51601;51.356;12.458;2024-01-25T05:14:38;10.63;;;2.08;;
65033;SDS011;51601;51.356;12.458;2024-01-25T05:18:57;7.90;;;1.48;;
65033;SDS011;51601;51.356;12.458;2024-01-25T05:23:17;6.00;;;1.43;;
65033;SDS011;51601;51.356;12.458;2024-01-25T05:27:35;8.75;;;2.03;;
65033;SDS011;51601;51.356;12.458;2024-01-25T05:31:53;6.95;;;1.63;;
65033;SDS011;51601;51.356;12.458;2024-01-25T05:36:16;6.80;;;1.43;;
65033;SDS011;51601;51.356;12.458;2024-01-25T05:40:32;12.52;;;2.15;;
65033;SDS011;51601;51.356;12.458;2024-01-25T05:44:50;11.13;;;2.20;;
65033;SDS011;51601;51.356;12.458;2024-01-25T05:49:08;12.63;;;1.70;;
65033;SDS011;51601;51.356;12.458;2024-01-25T05:53:28;10.45;;;2.63;;
65033;SDS011;51601;51.356;12.458;2024-01-25T05:57:44;8.93;;;2.47;;
65033;SDS011;51601;51.356;12.458;2024-01-25T06:02:03;16.25;;;2.38;;
65033;SDS011;51601;51.356;12.458;2024-01-25T06:06:21;11.33;;;2.33;;
65033;SDS011;51601;51.356;12.458;2024-01-25T06:10:40;14.30;;;2.40;;
65033;SDS011;51601;51.356;12.458;2024-01-25T06:15:00;12.82;;;2.10;;
65033;SDS011;51601;51.356;12.458;2024-01-25T06:19:18;11.33;;;2.00;;
65033;SDS011;51601;51.356;12.458;2024-01-25T06:23:36;10.18;;;1.90;;
65033;SDS011;51601;51.356;12.458;2024-01-25T06:27:55;13.10;;;2.03;;
65033;SDS011;51601;51.356;12.458;2024-01-25T06:32:15;9.07;;;1.40;;
65033;SDS011;51601;51.356;12.458;2024-01-25T06:36:43;17.95;;;2.22;;
65033;SDS011;51601;51.356;12.458;2024-01-25T06:41:00;10.43;;;1.88;;
65033;SDS011;51601;51.356;12.458;2024-01-25T06:45:20;9.80;;;1.60;;
65033;SDS011;51601;51.356;12.458;2024-01-25T06:49:37;6.93;;;1.53;;
65033;SDS011;51601;51.356;12.458;2024-01-25T06:53:55;5.57;;;1.30;;
65033;SDS011;51601;51.356;12.458;2024-01-25T06:58:13;8.80;;;1.48;;
65033;SDS011;51601;51.356;12.458;2024-01-25T07:02:35;10.53;;;2.00;;
65033;SDS011;51601;51.356;12.458;2024-01-25T07:06:55;12.18;;;1.90;;
65033;SDS011;51601;51.356;12.458;2024-01-25T07:11:13;11.68;;;1.90;;
65033;SDS011;51601;51.356;12.458;2024-01-25T07:15:34;10.43;;;1.93;;
65033;SDS011;51601;51.356;12.458;2024-01-25T07:19:54;13.60;;;2.15;;
65033;SDS011;51601;51.356;12.458;2024-01-25T07:24:13;12.75;;;2.20;;
65033;SDS011;51601;51.356;12.458;2024-01-25T07:28:31;9.52;;;1.98;;
65033;SDS011;51601;51.356;12.458;2024-01-25T07:32:49;13.63;;;2.27;;
65033;SDS011;51601;51.356;12.458;2024-01-25T07:37:09;10.57;;;2.00;;
65033;SDS011;51601;51.356;12.458;2024-01-25T07:41:29;7.00;;;1.38;;
65033;SDS011;51601;51.356;12.458;2024-01-25T07:45:47;14.83;;;2.57;;
65033;SDS011;51601;51.356;12.458;2024-01-25T07:50:08;11.27;;;1.90;;
65033;SDS011;51601;51.356;12.458;2024-01-25T07:54:27;6.47;;;1.70;;
65033;SDS011;51601;51.356;12.458;2024-01-25T07:58:44;11.90;;;1.70;;
65033;SDS011;51601;51.356;12.458;2024-01-25T08:03:02;7.00;;;1.60;;
65033;SDS011;51601;51.356;12.458;2024-01-25T08:07:20;11.00;;;1.95;;
65033;SDS011;51601;51.356;12.458;2024-01-25T08:11:39;7.57;;;1.58;;
65033;SDS011;51601;51.356;12.458;2024-01-25T08:15:59;8.37;;;1.50;;
65033;SDS011;51601;51.356;12.458;2024-01-25T08:20:18;6.53;;;1.30;;
65033;SDS011;51601;51.356;12.458;2024-01-25T08:24:35;7.70;;;1.75;;
65033;SDS011;51601;51.356;12.458;2024-01-25T08:28:55;9.40;;;2.27;;
65033;SDS011;51601;51.356;12.458;2024-01-25T08:33:11;10.88;;;2.30;;
65033;SDS011;51601;51.356;12.458;2024-01-25T08:37:30;12.45;;;2.80;;
65033;SDS011;51601;51.356;12.458;2024-01-25T08:41:48;14.93;;;3.10;;
65033;SDS011;51601;51.356;12.458;2024-01-25T08:46:07;8.57;;;2.20;;
65033;SDS011;51601;51.356;12.458;2024-01-25T08:50:27;11.57;;;2.28;;
65033;SDS011;51601;51.356;12.458;2024-01-25T08:54:45;8.20;;;1.60;;
65033;SDS011;51601;51.356;12.458;2024-01-25T08:59:06;14.57;;;2.50;;
65033;SDS011;51601;51.356;12.458;2024-01-25T09:03:25;15.55;;;2.50;;
65033;SDS011;51601;51.356;12.458;2024-01-25T09:07:42;11.30;;;2.25;;
65033;SDS011;51601;51.356;12.458;2024-01-25T09:12:00;8.00;;;2.10;;
65033;SDS011;51601;51.356;12.458;2024-01-25T09:16:18;11.75;;;2.15;;
65033;SDS011;51601;51.356;12.458;2024-01-25T09:20:38;10.90;;;1.65;;
65033;SDS011;51601;51.356;12.458;2024-01-25T09:24:57;14.60;;;2.00;;
65033;SDS011;51601;51.356;12.458;2024-01-25T09:29:15;10.35;;;2.17;;
65033;SDS011;51601;51.356;12.458;2024-01-25T09:33:34;10.02;;;2.47;;
65033;SDS011;51601;51.356;12.458;2024-01-25T09:37:53;13.85;;;2.15;;
65033;SDS011;51601;51.356;12.458;2024-01-25T09:42:13;11.87;;;2.00;;
65033;SDS011;51601;51.356;12.458;2024-01-25T09:46:31;10.85;;;2.28;;
65033;SDS011;51601;51.356;12.458;2024-01-25T09:50:49;6.70;;;1.20;;
65033;SDS011;51601;51.356;12.458;2024-01-25T09:55:08;10.03;;;2.30;;
65033;SDS011;51601;51.356;12.458;2024-01-25T09:59:31;11.95;;;2.50;;
65033;SDS011;51601;51.356;12.458;2024-01-25T10:03:49;8.10;;;1.98;;
65033;SDS011;51601;51.356;12.458;2024-01-25T10:08:12;9.97;;;1.90;;
65033;SDS011;51601;51.356;12.458;2024-01-25T10:12:33;7.72;;;1.58;;
65033;SDS011;51601;51.356;12.458;2024-01-25T10:16:49;10.05;;;2.20;;
65033;SDS011;51601;51.356;12.458;2024-01-25T10:21:11;9.98;;;1.83;;
65033;SDS011;51601;51.356;12.458;2024-01-25T10:25:29;11.03;;;2.40;;
65033;SDS011;51601;51.356;12.458;2024-01-25T10:29:48;8.00;;;1.75;;
65033;SDS011;51601;51.356;12.458;2024-01-25T10:34:08;8.65;;;2.22;;
65033;SDS011;51601;51.356;12.458;2024-01-25T10:38:29;10.60;;;1.70;;
65033;SDS011;51601;51.356;12.458;2024-01-25T10:42:50;12.40;;;2.55;;
65033;SDS011;51601;51.356;12.458;2024-01-25T10:47:09;16.55;;;2.83;;
65033;SDS011;51601;51.356;12.458;2024-01-25T10:51:29;12.73;;;2.67;;
65033;SDS011;51601;51.356;12.458;2024-01-25T10:55:47;14.25;;;2.28;;
65033;SDS011;51601;51.356;12.458;2024-01-25T11:00:06;10.23;;;1.63;;
65033;SDS011;51601;51.356;12.458;2024-01-25T11:04:29;10.27;;;2.17;;
65033;SDS011;51601;51.356;12.458;2024-01-25T11:08:48;11.70;;;1.93;;
65033;SDS011;51601;51.356;12.458;2024-01-25T11:13:06;14.00;;;2.63;;
65033;SDS011;51601;51.356;12.458;2024-01-25T11:17:31;8.75;;;2.00;;
65033;SDS011;51601;51.356;12.458;2024-01-25T11:21:52;7.53;;;1.53;;
65033;SDS011;51601;51.356;12.458;2024-01-25T11:26:12;10.50;;;2.00;;
65033;SDS011;51601;51.356;12.458;2024-01-25T11:30:34;10.38;;;2.10;;
65033;SDS011;51601;51.356;12.458;2024-01-25T11:34:57;7.47;;;1.30;;
65033;SDS011;51601;51.356;12.458;2024-01-25T11:39:17;10.07;;;1.80;;
65033;SDS011;51601;51.356;12.458;2024-01-25T11:43:37;7.53;;;1.95;;
65033;SDS011;51601;51.356;12.458;2024-01-25T11:47:55;9.05;;;1.92;;
65033;SDS011;51601;51.356;12.458;2024-01-25T11:52:13;9.13;;;1.57;;
65033;SDS011;51601;51.356;12.458;2024-01-25T11:56:32;8.75;;;1.90;;
65033;SDS011;51601;51.356;12.458;2024-01-25T12:00:55;11.48;;;1.92;;
65033;SDS011;51601;51.356;12.458;2024-01-25T12:05:13;10.10;;;1.50;;
65033;SDS011;51601;51.356;12.458;2024-01-25T12:09:34;9.20;;;1.33;;
65033;SDS011;51601;51.356;12.458;2024-01-25T12:13:53;7.97;;;1.95;;
65033;SDS011;51601;51.356;12.458;2024-01-25T12:18:10;7.00;;;1.30;;
65033;SDS011;51601;51.356;12.458;2024-01-25T12:22:29;8.80;;;1.92;;
65033;SDS011;51601;51.356;12.458;2024-01-25T12:26:52;13.55;;;2.47;;
65033;SDS011;51601;51.356;12.458;2024-01-25T12:31:12;6.43;;;1.67;;
65033;SDS011;51601;51.356;12.458;2024-01-25T12:35:32;6.43;;;1.23;;
65033;SDS011;51601;51.356;12.458;2024-01-25T12:39:51;9.90;;;1.88;;
65033;SDS011;51601;51.356;12.458;2024-01-25T12:44:11;11.82;;;2.38;;
65033;SDS011;51601;51.356;12.458;2024-01-25T12:48:30;7.40;;;1.73;;
65033;SDS011;51601;51.356;12.458;2024-01-25T12:52:50;9.02;;;1.67;;
65033;SDS011;51601;51.356;12.458;2024-01-25T12:57:08;8.50;;;2.03;;
65033;SDS011;51601;51.356;12.458;2024-01-25T13:01:26;12.30;;;1.93;;
65033;SDS011;51601;51.356;12.458;2024-01-25T13:05:46;8.93;;;2.22;;
65033;SDS011;51601;51.356;12.458;2024-01-25T13:10:06;9.73;;;2.88;;
65033;SDS011;51601;51.356;12.458;2024-01-25T13:14:26;9.02;;;1.65;;
65033;SDS011;51601;51.356;12.458;2024-01-25T13:18:45;11.73;;;1.67;;
65033;SDS011;51601;51.356;12.458;2024-01-25T13:23:04;9.70;;;1.75;;
65033;SDS011;51601;51.356;12.458;2024-01-25T13:27:24;9.13;;;1.60;;
65033;SDS011;51601;51.356;12.458;2024-01-25T13:31:42;7.20;;;1.77;;
65033;SDS011;51601;51.356;12.458;2024-01-25T13:36:00;7.55;;;1.38;;
65033;SDS011;51601;51.356;12.458;2024-01-25T13:40:19;7.75;;;1.48;;
65033;SDS011;51601;51.356;12.458;2024-01-25T13:44:36;9.93;;;2.00;;
65033;SDS011;51601;51.356;12.458;2024-01-25T13:48:54;13.90;;;1.90;;
65033;SDS011;51601;51.356;12.458;2024-01-25T13:53:12;7.00;;;1.30;;
65033;SDS011;51601;51.356;12.458;2024-01-25T13:57:35;8.40;;;1.63;;
65033;SDS011;51601;51.356;12.458;2024-01-25T14:01:54;6.87;;;1.60;;
65033;SDS011;51601;51.356;12.458;2024-01-25T14:06:13;6.20;;;1.42;;
65033;SDS011;51601;51.356;12.458;2024-01-25T14:10:33;6.82;;;1.58;;
65033;SDS011;51601;51.356;12.458;2024-01-25T14:14:53;9.37;;;1.90;;
65033;SDS011;51601;51.356;12.458;2024-01-25T14:19:10;7.90;;;1.55;;
65033;SDS011;51601;51.356;12.458;2024-01-25T14:23:28;7.53;;;1.65;;
65033;SDS011;51601;51.356;12.458;2024-01-25T14:27:49;6.97;;;1.90;;
65033;SDS011;51601;51.356;12.458;2024-01-25T14:32:14;11.55;;;1.67;;
65033;SDS011;51601;51.356;12.458;2024-01-25T14:36:34;9.85;;;1.60;;
65033;SDS011;51601;51.356;12.458;2024-01-25T14:40:52;7.10;;;1.27;;
65033;SDS011;51601;51.356;12.458;2024-01-25T14:45:16;9.10;;;1.63;;
65033;SDS011;51601;51.356;12.458;2024-01-25T14:49:36;12.63;;;2.10;;
65033;SDS011;51601;51.356;12.458;2024-01-25T14:53:56;11.20;;;2.15;;
65033;SDS011;51601;51.356;12.458;2024-01-25T14:58:14;5.67;;;1.20;;
65033;SDS011;51601;51.356;12.458;2024-01-25T15:02:38;9.00;;;1.52;;
65033;SDS011;51601;51.356;12.458;2024-01-25T15:06:57;7.88;;;2.05;;
65033;SDS011;51601;51.356;12.458;2024-01-25T15:11:14;9.60;;;1.60;;
65033;SDS011;51601;51.356;12.458;2024-01-25T15:15:32;14.70;;;2.00;;
65033;SDS011;51601;51.356;12.458;2024-01-25T15:19:50;10.02;;;1.80;;
65033;SDS011;51601;51.356;12.458;2024-01-25T15:24:10;9.32;;;1.92;;
65033;SDS011;51601;51.356;12.458;2024-01-25T15:28:26;8.43;;;1.80;;
65033;SDS011;51601;51.356;12.458;2024-01-25T15:32:44;15.68;;;2.47;;
65033;SDS011;51601;51.356;12.458;2024-01-25T15:37:02;10.43;;;1.95;;
65033;SDS011;51601;51.356;12.458;2024-01-25T15:41:22;9.20;;;1.77;;
65033;SDS011;51601;51.356;12.458;2024-01-25T15:45:38;9.80;;;2.25;;
65033;SDS011;51601;51.356;12.458;2024-01-25T15:49:56;10.38;;;1.88;;
65033;SDS011;51601;51.356;12.458;2024-01-25T15:54:14;11.63;;;2.40;;
65033;SDS011;51601;51.356;12.458;2024-01-25T15:58:34;7.90;;;1.90;;
65033;SDS011;51601;51.356;12.458;2024-01-25T16:02:54;12.13;;;2.58;;
65033;SDS011;51601;51.356;12.458;2024-01-25T16:07:12;12.77;;;2.10;;
65033;SDS011;51601;51.356;12.458;2024-01-25T16:11:30;8.13;;;2.03;;
65033;SDS011;51601;51.356;12.458;2024-01-25T16:15:49;8.35;;;2.15;;
65033;SDS011;51601;51.356;12.458;2024-01-25T16:20:09;9.45;;;2.10;;
65033;SDS011;51601;51.356;12.458;2024-01-25T16:24:27;10.00;;;2.40;;
65033;SDS011;51601;51.356;12.458;2024-01-25T16:28:45;10.68;;;2.40;;
65033;SDS011;51601;51.356;12.458;2024-01-25T16:33:05;14.18;;;2.38;;
65033;SDS011;51601;51.356;12.458;2024-01-25T16:37:24;17.00;;;2.93;;
65033;SDS011;51601;51.356;12.458;2024-01-25T16:41:43;23.70;;;2.78;;
65033;SDS011;51601;51.356;12.458;2024-01-25T16:46:04;10.60;;;2.00;;
65033;SDS011;51601;51.356;12.458;2024-01-25T16:50:23;14.93;;;2.20;;
65033;SDS011;51601;51.356;12.458;2024-01-25T16:54:43;9.97;;;2.10;;
65033;SDS011;51601;51.356;12.458;2024-01-25T16:59:01;11.80;;;2.30;;
65033;SDS011;51601;51.356;12.458;2024-01-25T17:03:19;11.35;;;2.78;;
65033;SDS011;51601;51.356;12.458;2024-01-25T17:07:38;12.47;;;3.00;;
65033;SDS011;51601;51.356;12.458;2024-01-25T17:11:55;14.43;;;2.50;;
65033;SDS011;51601;51.356;12.458;2024-01-25T17:16:13;11.57;;;2.70;;
65033;SDS011;51601;51.356;12.458;2024-01-25T17:20:31;14.33;;;3.43;;
65033;SDS011;51601;51.356;12.458;2024-01-25T17:24:51;13.00;;;3.45;;
65033;SDS011;51601;51.356;12.458;2024-01-25T17:29:10;11.20;;;2.47;;
65033;SDS011;51601;51.356;12.458;2024-01-25T17:33:28;14.05;;;3.42;;
65033;SDS011;51601;51.356;12.458;2024-01-25T17:37:49;12.43;;;2.83;;
65033;SDS011;51601;51.356;12.458;2024-01-25T17:42:09;10.82;;;2.80;;
65033;SDS011;51601;51.356;12.458;2024-01-25T17:46:28;17.85;;;3.40;;
65033;SDS011;51601;51.356;12.458;2024-01-25T17:50:47;11.83;;;2.83;;
65033;SDS011;51601;51.356;12.458;2024-01-25T17:55:05;10.52;;;2.95;;
65033;SDS011;51601;51.356;12.458;2024-01-25T17:59:24;8.40;;;3.22;;
65033;SDS011;51601;51.356;12.458;2024-01-25T18:03:44;14.20;;;3.10;;
65033;SDS011;51601;51.356;12.458;2024-01-25T18:08:05;12.55;;;3.78;;
65033;SDS011;51601;51.356;12.458;2024-01-25T18:12:23;10.60;;;2.92;;
65033;SDS011;51601;51.356;12.458;2024-01-25T18:16:42;11.32;;;2.90;;
65033;SDS011;51601;51.356;12.458;2024-01-25T18:21:02;16.57;;;3.10;;
65033;SDS011;51601;51.356;12.458;2024-01-25T18:25:20;14.20;;;3.10;;
65033;SDS011;51601;51.356;12.458;2024-01-25T18:29:38;17.13;;;3.33;;
65033;SDS011;51601;51.356;12.458;2024-01-25T18:33:58;16.70;;;3.83;;
65033;SDS011;51601;51.356;12.458;2024-01-25T18:38:17;17.05;;;3.42;;
65033;SDS011;51601;51.356;12.458;2024-01-25T18:42:35;13.90;;;3.35;;
65033;SDS011;51601;51.356;12.458;2024-01-25T18:46:53;16.27;;;3.37;;
65033;SDS011;51601;51.356;12.458;2024-01-25T18:51:13;15.38;;;4.10;;
65033;SDS011;51601;51.356;12.458;2024-01-25T18:55:33;12.07;;;3.72;;
65033;SDS011;51601;51.356;12.458;2024-01-25T18:59:51;15.52;;;3.75;;
65033;SDS011;51601;51.356;12.458;2024-01-25T19:04:09;13.13;;;3.97;;
65033;SDS011;51601;51.356;12.458;2024-01-25T19:08:29;15.25;;;4.03;;
65033;SDS011;51601;51.356;12.458;2024-01-25T19:12:48;20.77;;;3.90;;
65033;SDS011;51601;51.356;12.458;2024-01-25T19:17:06;16.80;;;4.17;;
65033;SDS011;51601;51.356;12.458;2024-01-25T19:21:24;16.35;;;4.65;;
65033;SDS011;51601;51.356;12.458;2024-01-25T19:25:44;15.13;;;4.00;;
65033;SDS011;51601;51.356;12.458;2024-01-25T19:30:04;17.13;;;4.33;;
65033;SDS011;51601;51.356;12.458;2024-01-25T19:34:34;12.23;;;3.95;;
65033;SDS011;51601;51.356;12.458;2024-01-25T19:38:52;11.65;;;4.05;;
65033;SDS011;51601;51.356;12.458;2024-01-25T19:43:11;22.05;;;4.55;;
65033;SDS011;51601;51.356;12.458;2024-01-25T19:47:28;14.40;;;4.10;;
65033;SDS011;51601;51.356;12.458;2024-01-25T19:51:46;18.83;;;4.30;;
65033;SDS011;51601;51.356;12.458;2024-01-25T19:56:07;18.40;;;4.15;;
65033;SDS011;51601;51.356;12.458;2024-01-25T20:00:28;18.17;;;4.53;;
65033;SDS011;51601;51.356;12.458;2024-01-25T20:04:49;20.33;;;4.38;;
65033;SDS011;51601;51.356;12.458;2024-01-25T20:09:07;17.40;;;4.38;;
65033;SDS011;51601;51.356;12.458;2024-01-25T20:13:28;19.43;;;5.13;;
65033;SDS011;51601;51.356;12.458;2024-01-25T20:17:51;15.55;;;4.55;;
65033;SDS011;51601;51.356;12.458;2024-01-25T20:22:11;20.70;;;5.05;;
65033;SDS011;51601;51.356;12.458;2024-01-25T20:26:29;17.50;;;5.80;;
65033;SDS011;51601;51.356;12.458;2024-01-25T20:30:47;20.77;;;6.37;;
65033;SDS011;51601;51.356;12.458;2024-01-25T20:35:06;18.80;;;6.30;;
65033;SDS011;51601;51.356;12.458;2024-01-25T20:39:26;21.08;;;6.30;;
65033;SDS011;51601;51.356;12.458;2024-01-25T20:43:44;21.33;;;6.17;;
65033;SDS011;51601;51.356;12.458;2024-01-25T20:48:06;22.63;;;5.65;;
65033;SDS011;51601;51.356;12.458;2024-01-25T20:52:31;17.83;;;4.95;;
65033;SDS011;51601;51.356;12.458;2024-01-25T20:56:50;18.30;;;5.90;;
65033;SDS011;51601;51.356;12.458;2024-01-25T21:01:15;14.20;;;5.90;;
65033;SDS011;51601;51.356;12.458;2024-01-25T21:05:33;20.48;;;6.00;;
65033;SDS011;51601;51.356;12.458;2024-01-25T21:09:52;16.05;;;4.95;;
65033;SDS011;51601;51.356;12.458;2024-01-25T21:14:12;19.27;;;5.53;;
65033;SDS011;51601;51.356;12.458;2024-01-25T21:18:30;18.70;;;5.55;;
65033;SDS011;51601;51.356;12.458;2024-01-25T21:22:51;15.30;;;4.70;;
65033;SDS011;51601;51.356;12.458;2024-01-25T21:27:11;23.30;;;5.10;;
65033;SDS011;51601;51.356;12.458;2024-01-25T21:31:33;17.23;;;5.30;;
65033;SDS011;51601;51.356;12.458;2024-01-25T21:35:51;16.20;;;5.00;;
65033;SDS011;51601;51.356;12.458;2024-01-25T21:40:10;21.77;;;6.40;;
65033;SDS011;51601;51.356;12.458;2024-01-25T21:44:29;19.02;;;6.50;;
65033;SDS011;51601;51.356;12.458;2024-01-25T21:48:48;20.17;;;6.50;;
65033;SDS011;51601;51.356;12.458;2024-01-25T21:53:07;20.20;;;6.97;;
65033;SDS011;51601;51.356;12.458;2024-01-25T21:57:25;15.83;;;5.10;;
65033;SDS011;51601;51.356;12.458;2024-01-25T22:01:44;19.95;;;5.95;;
65033;SDS011;51601;51.356;12.458;2024-01-25T22:06:04;21.23;;;6.32;;
65033;SDS011;51601;51.356;12.458;2024-01-25T22:10:22;21.20;;;5.87;;
65033;SDS011;51601;51.356;12.458;2024-01-25T22:14:40;18.85;;;6.30;;
65033;SDS011;51601;51.356;12.458;2024-01-25T22:18:59;19.60;;;5.65;;
65033;SDS011;51601;51.356;12.458;2024-01-25T22:23:19;17.77;;;5.13;;
65033;SDS011;51601;51.356;12.458;2024-01-25T22:27:37;18.02;;;6.05;;
65033;SDS011;51601;51.356;12.458;2024-01-25T22:31:59;23.25;;;5.43;;
65033;SDS011;51601;51.356;12.458;2024-01-25T22:36:20;21.95;;;5.38;;
65033;SDS011;51601;51.356;12.458;2024-01-25T22:40:41;16.70;;;3.67;;
65033;SDS011;51601;51.356;12.458;2024-01-25T22:44:59;20.38;;;5.13;;
65033;SDS011;51601;51.356;12.458;2024-01-25T22:49:17;19.45;;;5.05;;
65033;SDS011;51601;51.356;12.458;2024-01-25T22:53:39;20.73;;;4.90;;
65033;SDS011;51601;51.356;12.458;2024-01-25T22:57:59;18.70;;;5.13;;
65033;SDS011;51601;51.356;12.458;2024-01-25T23:02:20;20.35;;;5.22;;
65033;SDS011;51601;51.356;12.458;2024-01-25T23:06:38;16.27;;;4.20;;
65033;SDS011;51601;51.356;12.458;2024-01-25T23:11:00;18.58;;;4.80;;
65033;SDS011;51601;51.356;12.458;2024-01-25T23:15:21;18.17;;;4.43;;
65033;SDS011;51601;51.356;12.458;2024-01-25T23:19:39;16.70;;;4.32;;
65033;SDS011;51601;51.356;12.458;2024-01-25T23:24:03;15.20;;;4.83;;
65033;SDS011;51601;51.356;12.458;2024-01-25T23:28:22;19.35;;;5.20;;
65033;SDS011;51601;51.356;12.458;2024-01-25T23:32:42;16.42;;;4.82;;
65033;SDS011;51601;51.356;12.458;2024-01-25T23:37:00;21.13;;;5.20;;
65033;SDS011;51601;51.356;12.458;2024-01-25T23:41:18;18.70;;;5.47;;
65033;SDS011;51601;51.356;12.458;2024-01-25T23:45:38;18.02;;;4.45;;
65033;SDS011;51601;51.356;12.458;2024-01-25T23:49:58;18.67;;;5.10;;
65033;SDS011;51601;51.356;12.458;2024-01-25T23:54:16;15.80;;;4.45;;
65033;SDS011;51601;51.356;12.458;2024-01-25T23:58:36;16.42;;;3.47;;
